sensor_id;sensor_type;location;lat;lon;timestamp;temperature;humidity
22966;DHT22;11649;48.090;9.754;2023-11-18T00:00:47;4.70;99.90
22966;DHT22;11649;48.090;9.754;2023-11-18T00:03:16;4.80;99.90
22966;DHT22;11649;48.090;9.754;2023-11-18T00:05:46;5.90;99.90
22966;DHT22;11649;48.090;9.754;2023-11-18T00:08:13;4.80;99.90
22966;DHT22;11649;48.090;9.754;2023-11-18T00:10:45;5.30;99.90
22966;DHT22;11649;48.090;9.754;2023-11-18T00:13:17;5.20;99.90
22966;DHT22;11649;48.090;9.754;2023-11-18T00:15:47;5.20;99.90
22966;DHT22;11649;48.090;9.754;2023-11-18T00:18:18;4.70;99.90
22966;DHT22;11649;48.090;9.754;2023-11-18T00:20:51;5.40;99.90
22966;DHT22;11649;48.090;9.754;2023-11-18T00:23:20;4.60;99.90
22966;DHT22;11649;48.090;9.754;2023-11-18T00:25:59;4.70;99.90
22966;DHT22;11649;48.090;9.754;2023-11-18T00:28:35;4.80;99.90
22966;DHT22;11649;48.090;9.754;2023-11-18T00:31:07;4.70;99.90
22966;DHT22;11649;48.090;9.754;2023-11-18T00:33:37;5.60;99.90
22966;DHT22;11649;48.090;9.754;2023-11-18T00:36:06;5.20;99.90
22966;DHT22;11649;48.090;9.754;2023-11-18T00:38:38;4.80;99.90
22966;DHT22;11649;48.090;9.754;2023-11-18T00:41:07;4.80;99.90
22966;DHT22;11649;48.090;9.754;2023-11-18T00:43:44;4.80;99.90
22966;DHT22;11649;48.090;9.754;2023-11-18T00:46:16;5.50;99.90
22966;DHT22;11649;48.090;9.754;2023-11-18T00:48:49;5.50;99.90
22966;DHT22;11649;48.090;9.754;2023-11-18T00:51:23;4.90;99.90
22966;DHT22;11649;48.090;9.754;2023-11-18T00:53:59;4.70;99.90
22966;DHT22;11649;48.090;9.754;2023-11-18T00:56:32;4.70;99.90
22966;DHT22;11649;48.090;9.754;2023-11-18T00:59:11;4.60;99.90
22966;DHT22;11649;48.090;9.754;2023-11-18T01:01:38;5.20;99.90
22966;DHT22;11649;48.090;9.754;2023-11-18T01:04:19;4.70;99.90
22966;DHT22;11649;48.090;9.754;2023-11-18T01:07:03;5.40;99.90
22966;DHT22;11649;48.090;9.754;2023-11-18T01:09:33;5.20;99.90
22966;DHT22;11649;48.090;9.754;2023-11-18T01:12:12;4.70;99.90
22966;DHT22;11649;48.090;9.754;2023-11-18T01:15:06;5.10;99.90
22966;DHT22;11649;48.090;9.754;2023-11-18T01:17:55;4.60;99.90
22966;DHT22;11649;48.090;9.754;2023-11-18T01:20:36;4.50;99.90
22966;DHT22;11649;48.090;9.754;2023-11-18T01:23:39;4.30;99.90
22966;DHT22;11649;48.090;9.754;2023-11-18T01:26:37;4.50;99.90
22966;DHT22;11649;48.090;9.754;2023-11-18T01:29:37;4.50;99.90
22966;DHT22;11649;48.090;9.754;2023-11-18T01:32:16;4.50;99.90
22966;DHT22;11649;48.090;9.754;2023-11-18T01:35:07;5.10;99.90
22966;DHT22;11649;48.090;9.754;2023-11-18T01:37:51;4.50;99.90
22966;DHT22;11649;48.090;9.754;2023-11-18T01:40:51;4.50;99.90
22966;DHT22;11649;48.090;9.754;2023-11-18T01:44:38;4.50;99.90
22966;DHT22;11649;48.090;9.754;2023-11-18T01:47:49;4.50;99.90
22966;DHT22;11649;48.090;9.754;2023-11-18T01:51:29;4.50;99.90
22966;DHT22;11649;48.090;9.754;2023-11-18T01:58:33;4.40;99.90
22966;DHT22;11649;48.090;9.754;2023-11-18T02:01:24;4.70;99.90
22966;DHT22;11649;48.090;9.754;2023-11-18T02:04:11;4.40;99.90
22966;DHT22;11649;48.090;9.754;2023-11-18T02:07:32;4.30;99.90
22966;DHT22;11649;48.090;9.754;2023-11-18T02:10:28;4.30;99.90
22966;DHT22;11649;48.090;9.754;2023-11-18T02:13:34;4.30;99.90
22966;DHT22;11649;48.090;9.754;2023-11-18T02:16:56;4.30;99.90
22966;DHT22;11649;48.090;9.754;2023-11-18T02:19:57;4.30;99.90
22966;DHT22;11649;48.090;9.754;2023-11-18T02:22:54;4.40;99.90
22966;DHT22;11649;48.090;9.754;2023-11-18T02:28:59;4.70;99.90
22966;DHT22;11649;48.090;9.754;2023-11-18T02:32:37;4.60;99.90
22966;DHT22;11649;48.090;9.754;2023-11-18T02:35:39;4.90;99.90
22966;DHT22;11649;48.090;9.754;2023-11-18T02:41:40;4.40;99.90
22966;DHT22;11649;48.090;9.754;2023-11-18T02:44:11;4.80;99.90
22966;DHT22;11649;48.090;9.754;2023-11-18T02:47:07;4.60;99.90
22966;DHT22;11649;48.090;9.754;2023-11-18T02:49:37;4.40;99.90
22966;DHT22;11649;48.090;9.754;2023-11-18T02:52:33;4.90;99.90
22966;DHT22;11649;48.090;9.754;2023-11-18T02:55:09;4.90;99.90
22966;DHT22;11649;48.090;9.754;2023-11-18T02:58:04;4.40;99.90
22966;DHT22;11649;48.090;9.754;2023-11-18T03:00:46;4.30;99.90
22966;DHT22;11649;48.090;9.754;2023-11-18T03:03:49;3.90;99.90
22966;DHT22;11649;48.090;9.754;2023-11-18T03:06:43;4.90;99.90
22966;DHT22;11649;48.090;9.754;2023-11-18T03:09:29;4.60;99.90
22966;DHT22;11649;48.090;9.754;2023-11-18T03:12:18;4.50;99.90
22966;DHT22;11649;48.090;9.754;2023-11-18T03:16:10;4.60;99.90
22966;DHT22;11649;48.090;9.754;2023-11-18T03:24:52;5.10;99.90
22966;DHT22;11649;48.090;9.754;2023-11-18T03:27:47;4.70;99.90
22966;DHT22;11649;48.090;9.754;2023-11-18T03:30:24;4.80;99.90
22966;DHT22;11649;48.090;9.754;2023-11-18T03:33:10;4.80;99.90
22966;DHT22;11649;48.090;9.754;2023-11-18T03:35:51;5.00;99.90
22966;DHT22;11649;48.090;9.754;2023-11-18T03:42:00;4.80;99.90
22966;DHT22;11649;48.090;9.754;2023-11-18T03:45:06;5.00;99.90
22966;DHT22;11649;48.090;9.754;2023-11-18T03:48:33;4.60;99.90
22966;DHT22;11649;48.090;9.754;2023-11-18T03:54:46;4.60;99.90
22966;DHT22;11649;48.090;9.754;2023-11-18T03:58:18;4.60;99.90
22966;DHT22;11649;48.090;9.754;2023-11-18T04:01:05;4.70;99.90
22966;DHT22;11649;48.090;9.754;2023-11-18T04:04:29;4.70;99.90
22966;DHT22;11649;48.090;9.754;2023-11-18T04:07:42;4.80;99.90
22966;DHT22;11649;48.090;9.754;2023-11-18T04:10:17;4.70;99.90
22966;DHT22;11649;48.090;9.754;2023-11-18T04:13:04;4.80;99.90
22966;DHT22;11649;48.090;9.754;2023-11-18T04:15:43;4.70;99.90
22966;DHT22;11649;48.090;9.754;2023-11-18T04:18:29;5.00;99.90
22966;DHT22;11649;48.090;9.754;2023-11-18T04:21:40;4.00;99.90
22966;DHT22;11649;48.090;9.754;2023-11-18T04:27:42;4.80;99.90
22966;DHT22;11649;48.090;9.754;2023-11-18T04:30:57;4.60;99.90
22966;DHT22;11649;48.090;9.754;2023-11-18T04:34:12;5.50;99.90
22966;DHT22;11649;48.090;9.754;2023-11-18T04:36:54;4.80;99.90
22966;DHT22;11649;48.090;9.754;2023-11-18T04:39:41;4.90;99.90
22966;DHT22;11649;48.090;9.754;2023-11-18T04:42:22;4.90;99.90
22966;DHT22;11649;48.090;9.754;2023-11-18T04:44:52;5.50;99.90
22966;DHT22;11649;48.090;9.754;2023-11-18T04:47:23;5.30;99.90
22966;DHT22;11649;48.090;9.754;2023-11-18T04:49:57;5.30;99.90
22966;DHT22;11649;48.090;9.754;2023-11-18T04:52:37;5.00;99.90
22966;DHT22;11649;48.090;9.754;2023-11-18T04:55:21;4.90;99.90
22966;DHT22;11649;48.090;9.754;2023-11-18T04:58:06;5.80;99.90
22966;DHT22;11649;48.090;9.754;2023-11-18T05:00:42;4.90;99.90
22966;DHT22;11649;48.090;9.754;2023-11-18T05:03:20;5.50;99.90
22966;DHT22;11649;48.090;9.754;2023-11-18T05:05:51;4.80;99.90
22966;DHT22;11649;48.090;9.754;2023-11-18T05:08:26;5.40;99.90
22966;DHT22;11649;48.090;9.754;2023-11-18T05:11:03;4.40;99.90
22966;DHT22;11649;48.090;9.754;2023-11-18T05:13:43;4.80;99.90
22966;DHT22;11649;48.090;9.754;2023-11-18T05:16:13;4.80;99.90
22966;DHT22;11649;48.090;9.754;2023-11-18T05:18:43;4.70;99.90
22966;DHT22;11649;48.090;9.754;2023-11-18T05:21:13;5.50;99.90
22966;DHT22;11649;48.090;9.754;2023-11-18T05:23:43;5.20;99.90
22966;DHT22;11649;48.090;9.754;2023-11-18T05:26:12;4.50;99.90
22966;DHT22;11649;48.090;9.754;2023-11-18T05:28:55;4.70;99.90
22966;DHT22;11649;48.090;9.754;2023-11-18T05:31:22;4.70;99.90
22966;DHT22;11649;48.090;9.754;2023-11-18T05:33:51;5.60;99.90
22966;DHT22;11649;48.090;9.754;2023-11-18T05:36:22;4.80;99.90
22966;DHT22;11649;48.090;9.754;2023-11-18T05:38:54;4.50;99.90
22966;DHT22;11649;48.090;9.754;2023-11-18T05:41:21;5.20;99.90
22966;DHT22;11649;48.090;9.754;2023-11-18T05:43:57;5.20;99.90
22966;DHT22;11649;48.090;9.754;2023-11-18T05:46:24;4.80;99.90
22966;DHT22;11649;48.090;9.754;2023-11-18T05:48:53;4.70;99.90
22966;DHT22;11649;48.090;9.754;2023-11-18T05:51:24;4.40;99.90
22966;DHT22;11649;48.090;9.754;2023-11-18T05:53:57;4.30;99.90
22966;DHT22;11649;48.090;9.754;2023-11-18T05:56:25;4.30;99.90
22966;DHT22;11649;48.090;9.754;2023-11-18T05:58:52;4.80;99.90
22966;DHT22;11649;48.090;9.754;2023-11-18T06:01:22;4.50;99.90
22966;DHT22;11649;48.090;9.754;2023-11-18T06:03:59;4.40;99.90
22966;DHT22;11649;48.090;9.754;2023-11-18T06:06:52;4.50;99.90
22966;DHT22;11649;48.090;9.754;2023-11-18T06:43:58;4.40;99.90
22966;DHT22;11649;48.090;9.754;2023-11-18T06:58:33;4.20;99.90
22966;DHT22;11649;48.090;9.754;2023-11-18T07:05:06;4.10;99.90
22966;DHT22;11649;48.090;9.754;2023-11-18T07:07:38;4.00;99.90
22966;DHT22;11649;48.090;9.754;2023-11-18T07:22:01;3.70;99.90
22966;DHT22;11649;48.090;9.754;2023-11-18T07:24:29;3.90;99.90
22966;DHT22;11649;48.090;9.754;2023-11-18T07:26:57;4.00;99.90
22966;DHT22;11649;48.090;9.754;2023-11-18T07:29:26;4.00;99.90
22966;DHT22;11649;48.090;9.754;2023-11-18T07:31:53;4.00;99.90
22966;DHT22;11649;48.090;9.754;2023-11-18T07:34:23;4.00;99.90
22966;DHT22;11649;48.090;9.754;2023-11-18T07:36:50;4.10;99.90
22966;DHT22;11649;48.090;9.754;2023-11-18T07:39:18;4.10;99.90
22966;DHT22;11649;48.090;9.754;2023-11-18T07:41:51;4.10;99.90
22966;DHT22;11649;48.090;9.754;2023-11-18T07:44:18;4.10;99.90
22966;DHT22;11649;48.090;9.754;2023-11-18T07:46:45;4.20;99.90
22966;DHT22;11649;48.090;9.754;2023-11-18T07:49:12;4.20;99.90
22966;DHT22;11649;48.090;9.754;2023-11-18T07:51:39;4.20;99.90
22966;DHT22;11649;48.090;9.754;2023-11-18T07:54:07;4.30;99.90
22966;DHT22;11649;48.090;9.754;2023-11-18T07:56:34;4.30;99.90
22966;DHT22;11649;48.090;9.754;2023-11-18T07:59:03;4.30;99.90
22966;DHT22;11649;48.090;9.754;2023-11-18T08:01:30;4.40;99.90
22966;DHT22;11649;48.090;9.754;2023-11-18T08:03:57;4.50;99.90
22966;DHT22;11649;48.090;9.754;2023-11-18T08:06:24;4.60;99.90
22966;DHT22;11649;48.090;9.754;2023-11-18T08:08:53;4.60;99.90
22966;DHT22;11649;48.090;9.754;2023-11-18T08:11:20;4.60;99.90
22966;DHT22;11649;48.090;9.754;2023-11-18T08:13:47;4.60;99.90
22966;DHT22;11649;48.090;9.754;2023-11-18T08:16:14;4.70;99.90
22966;DHT22;11649;48.090;9.754;2023-11-18T08:18:42;4.70;99.90
22966;DHT22;11649;48.090;9.754;2023-11-18T08:21:09;4.70;99.90
22966;DHT22;11649;48.090;9.754;2023-11-18T08:23:36;4.80;99.90
22966;DHT22;11649;48.090;9.754;2023-11-18T08:26:04;4.80;99.90
22966;DHT22;11649;48.090;9.754;2023-11-18T08:28:32;4.80;99.90
22966;DHT22;11649;48.090;9.754;2023-11-18T08:30:59;4.80;99.90
22966;DHT22;11649;48.090;9.754;2023-11-18T08:33:27;4.90;99.90
22966;DHT22;11649;48.090;9.754;2023-11-18T08:35:55;4.90;99.90
22966;DHT22;11649;48.090;9.754;2023-11-18T08:38:23;5.00;99.90
22966;DHT22;11649;48.090;9.754;2023-11-18T08:40:51;5.00;99.90
22966;DHT22;11649;48.090;9.754;2023-11-18T08:43:18;5.10;99.90
22966;DHT22;11649;48.090;9.754;2023-11-18T08:45:47;5.10;99.90
22966;DHT22;11649;48.090;9.754;2023-11-18T08:48:17;5.30;99.90
22966;DHT22;11649;48.090;9.754;2023-11-18T08:50:45;5.30;99.90
22966;DHT22;11649;48.090;9.754;2023-11-18T08:53:13;5.30;99.90
22966;DHT22;11649;48.090;9.754;2023-11-18T08:55:46;5.30;99.90
22966;DHT22;11649;48.090;9.754;2023-11-18T08:58:21;5.40;99.90
22966;DHT22;11649;48.090;9.754;2023-11-18T09:00:55;5.40;99.90
22966;DHT22;11649;48.090;9.754;2023-11-18T09:03:26;5.40;99.90
22966;DHT22;11649;48.090;9.754;2023-11-18T09:06:06;5.50;99.90
22966;DHT22;11649;48.090;9.754;2023-11-18T09:08:46;5.60;99.90
22966;DHT22;11649;48.090;9.754;2023-11-18T09:11:14;5.60;99.90
22966;DHT22;11649;48.090;9.754;2023-11-18T09:13:46;5.60;99.90
22966;DHT22;11649;48.090;9.754;2023-11-18T09:16:20;5.60;99.90
22966;DHT22;11649;48.090;9.754;2023-11-18T09:18:56;5.70;99.90
22966;DHT22;11649;48.090;9.754;2023-11-18T09:21:26;5.60;99.90
22966;DHT22;11649;48.090;9.754;2023-11-18T09:23:56;5.60;99.90
22966;DHT22;11649;48.090;9.754;2023-11-18T09:26:23;5.70;99.90
22966;DHT22;11649;48.090;9.754;2023-11-18T09:28:53;5.70;99.90
22966;DHT22;11649;48.090;9.754;2023-11-18T09:31:20;5.70;99.90
22966;DHT22;11649;48.090;9.754;2023-11-18T09:33:49;5.70;99.90
22966;DHT22;11649;48.090;9.754;2023-11-18T09:36:20;5.60;99.90
22966;DHT22;11649;48.090;9.754;2023-11-18T09:38:48;5.70;99.90
22966;DHT22;11649;48.090;9.754;2023-11-18T09:41:16;5.80;99.90
22966;DHT22;11649;48.090;9.754;2023-11-18T09:43:45;5.90;99.90
22966;DHT22;11649;48.090;9.754;2023-11-18T09:46:22;6.00;99.90
22966;DHT22;11649;48.090;9.754;2023-11-18T09:48:52;5.90;99.90
22966;DHT22;11649;48.090;9.754;2023-11-18T09:51:24;5.90;99.90
22966;DHT22;11649;48.090;9.754;2023-11-18T09:54:01;6.00;99.90
22966;DHT22;11649;48.090;9.754;2023-11-18T09:56:48;6.00;99.90
22966;DHT22;11649;48.090;9.754;2023-11-18T09:59:32;6.00;99.90
22966;DHT22;11649;48.090;9.754;2023-11-18T10:02:05;6.10;99.90
22966;DHT22;11649;48.090;9.754;2023-11-18T10:04:38;6.10;99.90
22966;DHT22;11649;48.090;9.754;2023-11-18T10:07:06;6.30;99.90
22966;DHT22;11649;48.090;9.754;2023-11-18T10:09:34;6.40;99.90
22966;DHT22;11649;48.090;9.754;2023-11-18T10:12:08;6.50;99.90
22966;DHT22;11649;48.090;9.754;2023-11-18T10:14:41;6.50;99.90
22966;DHT22;11649;48.090;9.754;2023-11-18T10:17:10;6.60;99.90
22966;DHT22;11649;48.090;9.754;2023-11-18T10:19:57;6.60;99.90
22966;DHT22;11649;48.090;9.754;2023-11-18T10:22:28;6.50;99.90
22966;DHT22;11649;48.090;9.754;2023-11-18T10:24:56;6.50;99.90
22966;DHT22;11649;48.090;9.754;2023-11-18T10:27:25;6.50;99.90
22966;DHT22;11649;48.090;9.754;2023-11-18T10:30:04;6.50;99.90
22966;DHT22;11649;48.090;9.754;2023-11-18T10:32:31;6.60;99.90
22966;DHT22;11649;48.090;9.754;2023-11-18T10:35:04;6.70;99.90
22966;DHT22;11649;48.090;9.754;2023-11-18T10:37:35;6.70;99.90
22966;DHT22;11649;48.090;9.754;2023-11-18T10:40:06;6.80;99.90
22966;DHT22;11649;48.090;9.754;2023-11-18T10:42:35;6.80;99.90
22966;DHT22;11649;48.090;9.754;2023-11-18T10:45:03;7.00;99.90
22966;DHT22;11649;48.090;9.754;2023-11-18T10:47:34;7.00;99.90
22966;DHT22;11649;48.090;9.754;2023-11-18T10:50:03;7.00;99.90
22966;DHT22;11649;48.090;9.754;2023-11-18T10:52:30;6.90;99.90
22966;DHT22;11649;48.090;9.754;2023-11-18T10:55:01;6.90;99.90
22966;DHT22;11649;48.090;9.754;2023-11-18T10:57:38;7.10;99.90
22966;DHT22;11649;48.090;9.754;2023-11-18T11:00:06;7.20;99.90
22966;DHT22;11649;48.090;9.754;2023-11-18T11:02:46;7.20;99.90
22966;DHT22;11649;48.090;9.754;2023-11-18T11:05:37;7.10;99.90
22966;DHT22;11649;48.090;9.754;2023-11-18T11:08:08;7.00;99.90
22966;DHT22;11649;48.090;9.754;2023-11-18T11:10:35;7.00;99.90
22966;DHT22;11649;48.090;9.754;2023-11-18T11:13:05;6.90;99.90
22966;DHT22;11649;48.090;9.754;2023-11-18T11:15:40;6.90;99.90
22966;DHT22;11649;48.090;9.754;2023-11-18T11:18:26;7.10;99.90
22966;DHT22;11649;48.090;9.754;2023-11-18T11:21:15;7.10;99.90
22966;DHT22;11649;48.090;9.754;2023-11-18T11:29:30;6.70;99.90
22966;DHT22;11649;48.090;9.754;2023-11-18T11:32:18;6.70;99.90
22966;DHT22;11649;48.090;9.754;2023-11-18T11:34:53;6.80;99.90
22966;DHT22;11649;48.090;9.754;2023-11-18T11:37:25;7.00;99.90
22966;DHT22;11649;48.090;9.754;2023-11-18T11:39:57;6.90;99.90
22966;DHT22;11649;48.090;9.754;2023-11-18T11:42:26;6.90;99.90
22966;DHT22;11649;48.090;9.754;2023-11-18T11:44:53;7.10;99.90
22966;DHT22;11649;48.090;9.754;2023-11-18T11:47:22;7.10;99.90
22966;DHT22;11649;48.090;9.754;2023-11-18T11:49:58;7.20;99.90
22966;DHT22;11649;48.090;9.754;2023-11-18T11:52:32;7.20;99.90
22966;DHT22;11649;48.090;9.754;2023-11-18T11:55:19;7.00;99.90
22966;DHT22;11649;48.090;9.754;2023-11-18T11:57:51;7.20;99.90
22966;DHT22;11649;48.090;9.754;2023-11-18T12:00:20;7.20;99.90
22966;DHT22;11649;48.090;9.754;2023-11-18T12:02:53;6.90;99.90
22966;DHT22;11649;48.090;9.754;2023-11-18T12:05:26;7.00;99.90
22966;DHT22;11649;48.090;9.754;2023-11-18T12:07:54;7.10;99.90
22966;DHT22;11649;48.090;9.754;2023-11-18T12:10:27;7.30;99.90
22966;DHT22;11649;48.090;9.754;2023-11-18T12:13:11;7.30;99.90
22966;DHT22;11649;48.090;9.754;2023-11-18T12:15:54;7.50;99.90
22966;DHT22;11649;48.090;9.754;2023-11-18T12:18:25;7.30;99.90
22966;DHT22;11649;48.090;9.754;2023-11-18T12:20:52;7.20;99.90
22966;DHT22;11649;48.090;9.754;2023-11-18T12:23:23;7.10;99.90
22966;DHT22;11649;48.090;9.754;2023-11-18T12:25:52;7.10;99.90
22966;DHT22;11649;48.090;9.754;2023-11-18T12:28:31;7.30;99.90
22966;DHT22;11649;48.090;9.754;2023-11-18T12:31:03;7.30;99.90
22966;DHT22;11649;48.090;9.754;2023-11-18T12:39:15;7.50;99.90
22966;DHT22;11649;48.090;9.754;2023-11-18T12:42:04;7.30;99.90
22966;DHT22;11649;48.090;9.754;2023-11-18T12:45:08;7.20;99.90
22966;DHT22;11649;48.090;9.754;2023-11-18T12:47:45;7.10;99.90
22966;DHT22;11649;48.090;9.754;2023-11-18T12:50:16;7.10;99.90
22966;DHT22;11649;48.090;9.754;2023-11-18T12:52:51;7.00;99.90
22966;DHT22;11649;48.090;9.754;2023-11-18T12:55:20;7.10;99.90
22966;DHT22;11649;48.090;9.754;2023-11-18T12:57:47;7.10;99.90
22966;DHT22;11649;48.090;9.754;2023-11-18T13:00:18;7.20;99.90
22966;DHT22;11649;48.090;9.754;2023-11-18T13:02:54;7.30;99.90
22966;DHT22;11649;48.090;9.754;2023-11-18T13:05:22;7.40;99.90
22966;DHT22;11649;48.090;9.754;2023-11-18T13:07:49;7.40;99.90
22966;DHT22;11649;48.090;9.754;2023-11-18T13:10:17;7.50;99.90
22966;DHT22;11649;48.090;9.754;2023-11-18T13:12:44;7.40;99.90
22966;DHT22;11649;48.090;9.754;2023-11-18T13:15:12;7.40;99.90
22966;DHT22;11649;48.090;9.754;2023-11-18T13:17:39;7.30;99.90
22966;DHT22;11649;48.090;9.754;2023-11-18T13:20:12;7.30;99.90
22966;DHT22;11649;48.090;9.754;2023-11-18T13:22:44;7.30;99.90
22966;DHT22;11649;48.090;9.754;2023-11-18T13:25:14;7.10;99.90
22966;DHT22;11649;48.090;9.754;2023-11-18T13:27:41;7.10;99.90
22966;DHT22;11649;48.090;9.754;2023-11-18T13:30:09;7.10;99.90
22966;DHT22;11649;48.090;9.754;2023-11-18T13:32:41;7.10;99.90
22966;DHT22;11649;48.090;9.754;2023-11-18T13:35:10;7.00;99.90
22966;DHT22;11649;48.090;9.754;2023-11-18T13:37:37;7.00;99.90
22966;DHT22;11649;48.090;9.754;2023-11-18T13:40:05;7.00;99.90
22966;DHT22;11649;48.090;9.754;2023-11-18T13:42:32;7.00;99.90
22966;DHT22;11649;48.090;9.754;2023-11-18T13:45:03;7.00;99.90
22966;DHT22;11649;48.090;9.754;2023-11-18T13:47:35;6.80;99.90
22966;DHT22;11649;48.090;9.754;2023-11-18T13:50:07;7.00;99.90
22966;DHT22;11649;48.090;9.754;2023-11-18T13:52:36;6.80;99.90
22966;DHT22;11649;48.090;9.754;2023-11-18T13:55:06;6.80;99.90
22966;DHT22;11649;48.090;9.754;2023-11-18T13:57:34;6.80;99.90
22966;DHT22;11649;48.090;9.754;2023-11-18T14:00:01;6.90;99.90
22966;DHT22;11649;48.090;9.754;2023-11-18T14:02:28;6.90;99.90
22966;DHT22;11649;48.090;9.754;2023-11-18T14:04:55;6.80;99.90
22966;DHT22;11649;48.090;9.754;2023-11-18T14:07:23;6.70;99.90
22966;DHT22;11649;48.090;9.754;2023-11-18T14:09:50;6.80;99.90
22966;DHT22;11649;48.090;9.754;2023-11-18T14:12:21;6.80;99.90
22966;DHT22;11649;48.090;9.754;2023-11-18T14:14:49;6.80;99.90
22966;DHT22;11649;48.090;9.754;2023-11-18T14:17:16;6.80;99.90
22966;DHT22;11649;48.090;9.754;2023-11-18T14:19:43;6.70;99.90
22966;DHT22;11649;48.090;9.754;2023-11-18T14:22:10;6.80;99.90
22966;DHT22;11649;48.090;9.754;2023-11-18T14:24:37;6.70;99.90
22966;DHT22;11649;48.090;9.754;2023-11-18T14:27:05;6.60;99.90
22966;DHT22;11649;48.090;9.754;2023-11-18T14:29:34;6.70;99.90
22966;DHT22;11649;48.090;9.754;2023-11-18T14:32:03;6.70;99.90
22966;DHT22;11649;48.090;9.754;2023-11-18T14:34:30;6.50;99.90
22966;DHT22;11649;48.090;9.754;2023-11-18T14:36:57;6.60;99.90
22966;DHT22;11649;48.090;9.754;2023-11-18T14:39:24;6.60;99.90
22966;DHT22;11649;48.090;9.754;2023-11-18T14:41:52;6.60;99.90
22966;DHT22;11649;48.090;9.754;2023-11-18T14:44:20;6.50;99.90
22966;DHT22;11649;48.090;9.754;2023-11-18T14:46:47;6.50;99.90
22966;DHT22;11649;48.090;9.754;2023-11-18T14:49:14;6.60;99.90
22966;DHT22;11649;48.090;9.754;2023-11-18T14:51:41;6.60;99.90
22966;DHT22;11649;48.090;9.754;2023-11-18T14:54:10;6.40;99.90
22966;DHT22;11649;48.090;9.754;2023-11-18T14:56:36;6.30;99.90
22966;DHT22;11649;48.090;9.754;2023-11-18T14:59:03;6.40;99.90
22966;DHT22;11649;48.090;9.754;2023-11-18T15:01:32;6.30;99.90
22966;DHT22;11649;48.090;9.754;2023-11-18T15:03:59;6.30;99.90
22966;DHT22;11649;48.090;9.754;2023-11-18T15:06:27;6.30;99.90
22966;DHT22;11649;48.090;9.754;2023-11-18T15:08:54;6.30;99.90
22966;DHT22;11649;48.090;9.754;2023-11-18T15:11:24;6.30;99.90
22966;DHT22;11649;48.090;9.754;2023-11-18T15:13:51;6.30;99.90
22966;DHT22;11649;48.090;9.754;2023-11-18T15:16:23;6.30;99.90
22966;DHT22;11649;48.090;9.754;2023-11-18T15:18:50;6.40;99.90
22966;DHT22;11649;48.090;9.754;2023-11-18T15:21:19;6.40;99.90
22966;DHT22;11649;48.090;9.754;2023-11-18T15:23:46;6.60;99.90
22966;DHT22;11649;48.090;9.754;2023-11-18T15:26:15;6.60;99.90
22966;DHT22;11649;48.090;9.754;2023-11-18T15:28:42;6.60;99.90
22966;DHT22;11649;48.090;9.754;2023-11-18T15:31:09;6.60;99.90
22966;DHT22;11649;48.090;9.754;2023-11-18T15:33:36;6.60;99.90
22966;DHT22;11649;48.090;9.754;2023-11-18T15:36:03;6.60;99.90
22966;DHT22;11649;48.090;9.754;2023-11-18T15:38:30;6.50;99.90
22966;DHT22;11649;48.090;9.754;2023-11-18T15:40:57;6.40;99.90
22966;DHT22;11649;48.090;9.754;2023-11-18T15:43:24;6.30;99.90
22966;DHT22;11649;48.090;9.754;2023-11-18T15:45:51;6.20;99.90
22966;DHT22;11649;48.090;9.754;2023-11-18T15:48:18;6.30;99.90
22966;DHT22;11649;48.090;9.754;2023-11-18T15:50:45;6.30;99.90
22966;DHT22;11649;48.090;9.754;2023-11-18T15:53:12;6.30;99.90
22966;DHT22;11649;48.090;9.754;2023-11-18T15:55:42;6.30;99.90
22966;DHT22;11649;48.090;9.754;2023-11-18T15:58:13;6.20;99.90
22966;DHT22;11649;48.090;9.754;2023-11-18T16:00:40;6.30;99.90
22966;DHT22;11649;48.090;9.754;2023-11-18T16:03:07;6.20;99.90
22966;DHT22;11649;48.090;9.754;2023-11-18T16:05:35;6.20;99.90
22966;DHT22;11649;48.090;9.754;2023-11-18T16:08:03;6.20;99.90
22966;DHT22;11649;48.090;9.754;2023-11-18T16:10:31;6.20;99.90
22966;DHT22;11649;48.090;9.754;2023-11-18T16:13:00;6.20;99.90
22966;DHT22;11649;48.090;9.754;2023-11-18T16:15:28;6.20;99.90
22966;DHT22;11649;48.090;9.754;2023-11-18T16:17:57;6.20;99.90
22966;DHT22;11649;48.090;9.754;2023-11-18T16:20:26;6.10;99.90
22966;DHT22;11649;48.090;9.754;2023-11-18T16:22:54;6.00;99.90
22966;DHT22;11649;48.090;9.754;2023-11-18T16:25:25;6.10;99.90
22966;DHT22;11649;48.090;9.754;2023-11-18T16:27:58;6.20;99.90
22966;DHT22;11649;48.090;9.754;2023-11-18T16:30:26;6.00;99.90
22966;DHT22;11649;48.090;9.754;2023-11-18T16:32:58;5.90;99.90
22966;DHT22;11649;48.090;9.754;2023-11-18T16:35:27;5.90;99.90
22966;DHT22;11649;48.090;9.754;2023-11-18T16:37:56;5.90;99.90
22966;DHT22;11649;48.090;9.754;2023-11-18T16:40:23;5.90;99.90
22966;DHT22;11649;48.090;9.754;2023-11-18T16:42:52;6.00;99.90
22966;DHT22;11649;48.090;9.754;2023-11-18T16:45:23;6.20;99.90
22966;DHT22;11649;48.090;9.754;2023-11-18T16:47:52;6.30;99.90
22966;DHT22;11649;48.090;9.754;2023-11-18T16:50:22;6.30;99.90
22966;DHT22;11649;48.090;9.754;2023-11-18T16:52:53;6.30;99.90
22966;DHT22;11649;48.090;9.754;2023-11-18T16:55:22;6.20;99.90
22966;DHT22;11649;48.090;9.754;2023-11-18T16:57:49;6.30;99.90
22966;DHT22;11649;48.090;9.754;2023-11-18T17:00:20;6.20;99.90
22966;DHT22;11649;48.090;9.754;2023-11-18T17:02:52;6.20;99.90
22966;DHT22;11649;48.090;9.754;2023-11-18T17:05:27;5.90;99.90
22966;DHT22;11649;48.090;9.754;2023-11-18T17:07:58;6.00;99.90
22966;DHT22;11649;48.090;9.754;2023-11-18T17:10:27;5.90;99.90
22966;DHT22;11649;48.090;9.754;2023-11-18T17:12:54;6.00;99.90
22966;DHT22;11649;48.090;9.754;2023-11-18T17:15:21;6.00;99.90
22966;DHT22;11649;48.090;9.754;2023-11-18T17:17:49;6.10;99.90
22966;DHT22;11649;48.090;9.754;2023-11-18T17:20:36;6.20;99.90
22966;DHT22;11649;48.090;9.754;2023-11-18T17:23:03;6.20;99.90
22966;DHT22;11649;48.090;9.754;2023-11-18T17:25:30;6.20;99.90
22966;DHT22;11649;48.090;9.754;2023-11-18T17:27:57;6.10;99.90
22966;DHT22;11649;48.090;9.754;2023-11-18T17:30:24;6.00;99.90
22966;DHT22;11649;48.090;9.754;2023-11-18T17:32:51;6.00;99.90
22966;DHT22;11649;48.090;9.754;2023-11-18T17:35:19;6.10;99.90
22966;DHT22;11649;48.090;9.754;2023-11-18T17:37:47;6.10;99.90
22966;DHT22;11649;48.090;9.754;2023-11-18T17:40:15;6.00;99.90
22966;DHT22;11649;48.090;9.754;2023-11-18T17:42:43;5.90;99.90
22966;DHT22;11649;48.090;9.754;2023-11-18T17:45:11;6.00;99.90
22966;DHT22;11649;48.090;9.754;2023-11-18T17:47:42;6.10;99.90
22966;DHT22;11649;48.090;9.754;2023-11-18T17:50:12;6.20;99.90
22966;DHT22;11649;48.090;9.754;2023-11-18T17:52:42;6.20;99.90
22966;DHT22;11649;48.090;9.754;2023-11-18T17:55:13;6.10;99.90
22966;DHT22;11649;48.090;9.754;2023-11-18T17:57:43;6.10;99.90
22966;DHT22;11649;48.090;9.754;2023-11-18T18:00:13;6.10;99.90
22966;DHT22;11649;48.090;9.754;2023-11-18T18:02:46;6.10;99.90
22966;DHT22;11649;48.090;9.754;2023-11-18T18:05:13;6.20;99.90
22966;DHT22;11649;48.090;9.754;2023-11-18T18:07:41;6.10;99.90
22966;DHT22;11649;48.090;9.754;2023-11-18T18:10:09;6.00;99.90
22966;DHT22;11649;48.090;9.754;2023-11-18T18:12:36;6.00;99.90
22966;DHT22;11649;48.090;9.754;2023-11-18T18:15:04;6.00;99.90